Time;durP1;ratioP1;P1;durP2;ratioP2;P2;SDS_P1;SDS_P2;PMS_P1;PMS_P2;Temp;Humidity;BMP_temperature;BMP_pressure;BME280_temperature;BME280_humidity;BME280_pressure;Samples;Min_cycle;Max_cycle;Signal;HPM_P1;HPM_P2
2022/02/06 00:00:38;;;;;;;;;;;;;;;;;;5075951;28;19908;-92
2022/02/06 00:03:03;;;;;;;;;;;;;;;;;;5076097;28;19927;-92
2022/02/06 00:05:28;;;;;;;;;;;;;;;;;;5075914;28;19916;-92
2022/02/06 00:07:53;;;;;;;;;;;;;;;;;;5076077;28;19919;-92
2022/02/06 00:10:18;;;;;;;;;;;;;;;;;;5075868;28;19916;-93
2022/02/06 00:12:44;;;;;;;;;;;;;;;;;;5076102;28;20448;-92
2022/02/06 00:15:09;;;;;;;;;;;;;;;;;;5075931;28;20252;-92
2022/02/06 00:17:34;;;;;;;;;;;;;;;;;;5076025;28;19912;-93
2022/02/06 00:19:59;;;;;;;;;;;;;;;;;;5079011;28;19912;-92
2022/02/06 00:22:47;;;;;;;;;;;;;;;;;;5079274;28;19912;-91
2022/02/06 00:30:31;;;;;;;;;;;;;;;;;;5096921;28;20343;-92
2022/02/06 00:38:05;;;;;;;;;;;;;;;;;;5066064;28;19916;-92
2022/02/06 00:41:21;;;;;;;;;;;;;;;;;;5097205;28;19908;-92
2022/02/06 00:43:46;;;;;;;;;;;;;;;;;;5078466;28;20279;-92
2022/02/06 00:46:13;;;;;;;;;;;;;;;;;;5079076;28;20351;-91
2022/02/06 00:48:42;;;;;;;;;;;;;;;;;;5078911;28;20439;-92
2022/02/06 00:53:51;;;;;;;;;;;;;;;;;;5097052;28;19927;-92
2022/02/06 00:56:16;;;;;;;;;;;;;;;;;;5078744;28;20278;-92
2022/02/06 00:58:41;;;;;;;;;;;;;;;;;;5078555;28;19919;-92
2022/02/06 01:01:06;;;;;;;;;;;;;;;;;;5078616;28;19908;-93
2022/02/06 01:03:32;;;;;;;;;;;;;;;;;;5078835;28;19919;-92
2022/02/06 01:05:57;;;;;;;;;;;;;;;;;;5078683;28;19915;-92
2022/02/06 01:08:22;;;;;;;;;;;;;;;;;;5078550;28;19915;-93
2022/02/06 01:10:47;;;;;;;;;;;;;;;;;;5078659;28;19915;-92
2022/02/06 01:13:44;;;;;;;;;;;;;;;;;;5077881;28;19912;-92
2022/02/06 01:16:08;;;;;;;;;;;;;;;;;;5095399;28;20363;-92
2022/02/06 01:18:39;;;;;;;;;;;;;;;;;;5077859;28;19905;-92
2022/02/06 01:21:13;;;;;;;;;;;;;;;;;;5078096;28;20318;-92
2022/02/06 01:29:09;;;;;;;;;;;;;;;;;;5095744;28;19908;-92
2022/02/06 01:34:06;;;;;;;;;;;;;;;;;;5095611;28;20375;-93
2022/02/06 01:36:46;;;;;;;;;;;;;;;;;;5077533;28;19909;-93
2022/02/06 01:41:41;;;;;;;;;;;;;;;;;;5095339;28;19912;-92
2022/02/06 01:44:14;;;;;;;;;;;;;;;;;;5095482;28;19919;-92
2022/02/06 02:10:24;;;;;;;;;;;;;;;;;;5095212;28;20616;-92
2022/02/06 02:20:59;;;;;;;;;;;;;;;;;;5075384;28;19912;-92
2022/02/06 02:47:16;;;;;;;;;;;;;;;;;;5095238;28;19912;-90
2022/02/06 02:49:47;;;;;;;;;;;;;;;;;;5076943;28;19919;-90
2022/02/06 02:52:21;;;;;;;;;;;;;;;;;;5076902;28;19908;-90
2022/02/06 02:54:51;;;;;;;;;;;;;;;;;;5076540;28;20393;-90
2022/02/06 02:57:27;;;;;;;;;;;;;;;;;;5076809;28;19939;-90
2022/02/06 03:02:17;;;;;;;;;;;;;;;;;;5094297;28;19919;-90
2022/02/06 03:04:47;;;;;;;;;;;;;;;;;;5089889;28;19909;-90
2022/02/06 03:07:12;;;;;;;;;;;;;;;;;;5056574;28;19947;-91
2022/02/06 03:09:41;;;;;;;;;;;;;;;;;;5056537;28;19963;-90
2022/02/06 03:12:06;;;;;;;;;;;;;;;;;;5056604;28;19909;-90
2022/02/06 03:14:58;;;;;;;;;;;;;;;;;;5070269;28;19917;-91
2022/02/06 03:17:33;;;;;;;;;;;;;;;;;;5093791;28;19934;-90
2022/02/06 03:20:06;;;;;;;;;;;;;;;;;;5076746;28;19947;-91
2022/02/06 03:22:35;;;;;;;;;;;;;;;;;;5076437;28;20256;-89
2022/02/06 03:25:07;;;;;;;;;;;;;;;;;;5076460;28;19908;-90
2022/02/06 03:27:33;;;;;;;;;;;;;;;;;;5076295;28;19908;-90
2022/02/06 03:29:58;;;;;;;;;;;;;;;;;;5076185;28;19908;-90
2022/02/06 03:32:23;;;;;;;;;;;;;;;;;;5075920;28;20427;-89
2022/02/06 03:34:48;;;;;;;;;;;;;;;;;;5076258;28;19916;-91
2022/02/06 03:37:13;;;;;;;;;;;;;;;;;;5076189;28;19965;-90
2022/02/06 03:39:39;;;;;;;;;;;;;;;;;;5076393;28;19962;-90
2022/02/06 03:42:09;;;;;;;;;;;;;;;;;;5076313;28;19920;-90
2022/02/06 03:47:07;;;;;;;;;;;;;;;;;;5093995;28;19998;-90
2022/02/06 03:50:16;;;;;;;;;;;;;;;;;;5076427;28;19961;-90
2022/02/06 03:52:25;;;;;;;;;;;;;;;;;;5083170;28;19908;-90
2022/02/06 03:54:50;;;;;;;;;;;;;;;;;;5079243;28;19908;-89
2022/02/06 03:57:15;;;;;;;;;;;;;;;;;;5079839;28;19954;-90
2022/02/06 03:59:40;;;;;;;;;;;;;;;;;;5080037;28;20368;-90
2022/02/06 04:02:05;;;;;;;;;;;;;;;;;;5079601;28;19919;-89
2022/02/06 04:04:30;;;;;;;;;;;;;;;;;;5079749;28;20359;-90
2022/02/06 04:07:04;;;;;;;;;;;;;;;;;;5079474;28;19912;-90
2022/02/06 04:09:34;;;;;;;;;;;;;;;;;;5079747;28;20355;-89
2022/02/06 04:12:02;;;;;;;;;;;;;;;;;;5079362;28;19912;-90
2022/02/06 04:14:30;;;;;;;;;;;;;;;;;;5079412;28;20389;-91
2022/02/06 04:16:59;;;;;;;;;;;;;;;;;;5079420;28;20359;-89
2022/02/06 04:19:27;;;;;;;;;;;;;;;;;;5079461;28;19912;-90
2022/02/06 04:21:52;;;;;;;;;;;;;;;;;;5079413;28;19912;-89
2022/02/06 04:24:17;;;;;;;;;;;;;;;;;;5097390;28;19908;-89
2022/02/06 04:26:42;;;;;;;;;;;;;;;;;;5097147;28;19908;-89
2022/02/06 04:29:07;;;;;;;;;;;;;;;;;;5078928;28;20372;-89
2022/02/06 04:31:33;;;;;;;;;;;;;;;;;;5078920;28;20266;-89
2022/02/06 04:33:58;;;;;;;;;;;;;;;;;;5078684;28;19974;-89
2022/02/06 04:36:28;;;;;;;;;;;;;;;;;;5078877;28;19920;-89
2022/02/06 04:39:10;;;;;;;;;;;;;;;;;;5078660;28;20248;-90
2022/02/06 04:41:56;;;;;;;;;;;;;;;;;;5078122;28;20345;-89
2022/02/06 05:16:44;;;;;;;;;;;;;;;;;;5096183;28;19916;-89
2022/02/06 05:24:59;;;;;;;;;;;;;;;;;;5059839;28;19999;-89
2022/02/06 05:30:01;;;;;;;;;;;;;;;;;;5095910;28;20429;-89
2022/02/06 05:32:34;;;;;;;;;;;;;;;;;;5077279;28;20291;-90
2022/02/06 05:34:59;;;;;;;;;;;;;;;;;;5077232;28;19916;-89
2022/02/06 05:37:26;;;;;;;;;;;;;;;;;;5095555;28;19938;-89
2022/02/06 05:39:51;;;;;;;;;;;;;;;;;;5095656;28;20010;-89
2022/02/06 05:42:17;;;;;;;;;;;;;;;;;;5077317;28;20010;-88
2022/02/06 05:44:44;;;;;;;;;;;;;;;;;;5077192;28;20423;-89
2022/02/06 05:47:09;;;;;;;;;;;;;;;;;;5076877;28;19922;-89
2022/02/06 05:49:34;;;;;;;;;;;;;;;;;;5077109;28;20016;-89
2022/02/06 05:51:59;;;;;;;;;;;;;;;;;;5076911;28;20026;-89
2022/02/06 05:54:24;;;;;;;;;;;;;;;;;;5077119;28;19919;-89
2022/02/06 05:56:49;;;;;;;;;;;;;;;;;;5077015;28;19912;-87
2022/02/06 05:59:15;;;;;;;;;;;;;;;;;;5095005;28;19924;-89
2022/02/06 06:01:40;;;;;;;;;;;;;;;;;;5076945;28;19920;-89
2022/02/06 06:04:05;;;;;;;;;;;;;;;;;;5076838;28;19912;-89
2022/02/06 06:06:31;;;;;;;;;;;;;;;;;;5076845;28;19913;-89
2022/02/06 06:08:57;;;;;;;;;;;;;;;;;;5076851;28;19912;-88
2022/02/06 06:11:22;;;;;;;;;;;;;;;;;;5076747;28;19912;-89
2022/02/06 06:13:47;;;;;;;;;;;;;;;;;;5076803;28;19912;-90
2022/02/06 06:16:12;;;;;;;;;;;;;;;;;;5076343;28;20291;-89
2022/02/06 06:18:37;;;;;;;;;;;;;;;;;;5076685;28;19912;-89
2022/02/06 06:21:04;;;;;;;;;;;;;;;;;;5076455;28;19912;-88
2022/02/06 06:23:29;;;;;;;;;;;;;;;;;;5086687;28;19920;-89
2022/02/06 06:25:54;;;;;;;;;;;;;;;;;;5076640;28;19969;-89
2022/02/06 06:28:19;;;;;;;;;;;;;;;;;;5094516;28;20006;-89
2022/02/06 06:30:44;;;;;;;;;;;;;;;;;;5076214;28;19916;-89
2022/02/06 06:33:09;;;;;;;;;;;;;;;;;;5094169;28;19919;-89
2022/02/06 06:35:35;;;;;;;;;;;;;;;;;;5076409;28;19920;-88
2022/02/06 06:38:00;;;;;;;;;;;;;;;;;;5076436;28;19935;-89
2022/02/06 06:40:26;;;;;;;;;;;;;;;;;;5076153;28;19912;-89
2022/02/06 06:42:51;;;;;;;;;;;;;;;;;;5076191;28;20281;-89
2022/02/06 06:45:16;;;;;;;;;;;;;;;;;;5076046;28;19912;-89
2022/02/06 06:47:42;;;;;;;;;;;;;;;;;;5076082;28;19912;-88
2022/02/06 06:50:07;;;;;;;;;;;;;;;;;;5094341;28;19913;-89
2022/02/06 06:52:32;;;;;;;;;;;;;;;;;;5076236;28;19968;-89
2022/02/06 06:55:01;;;;;;;;;;;;;;;;;;5094145;28;20363;-88
2022/02/06 06:57:32;;;;;;;;;;;;;;;;;;5075913;28;19959;-89
2022/02/06 07:04:47;;;;;;;;;;;;;;;;;;5094313;28;19912;-89
2022/02/06 07:07:12;;;;;;;;;;;;;;;;;;5076187;28;19935;-89
2022/02/06 07:09:37;;;;;;;;;;;;;;;;;;5075824;28;20002;-88
2022/02/06 07:12:02;;;;;;;;;;;;;;;;;;5075778;28;20346;-89
2022/02/06 07:14:28;;;;;;;;;;;;;;;;;;5075864;28;19912;-89
2022/02/06 07:16:53;;;;;;;;;;;;;;;;;;5075842;28;20018;-89
2022/02/06 07:19:18;;;;;;;;;;;;;;;;;;5094192;28;19966;-89
2022/02/06 07:21:43;;;;;;;;;;;;;;;;;;5075818;28;19924;-89
2022/02/06 07:24:08;;;;;;;;;;;;;;;;;;5075938;28;19912;-89
2022/02/06 07:26:33;;;;;;;;;;;;;;;;;;5075888;28;19942;-90
2022/02/06 07:29:00;;;;;;;;;;;;;;;;;;5077838;28;19912;-89
2022/02/06 07:31:25;;;;;;;;;;;;;;;;;;5079481;28;19912;-88
2022/02/06 07:33:51;;;;;;;;;;;;;;;;;;5071626;28;19924;-89
2022/02/06 07:36:18;;;;;;;;;;;;;;;;;;5079936;28;20477;-89
2022/02/06 07:38:43;;;;;;;;;;;;;;;;;;5079507;28;19956;-89
2022/02/06 07:41:08;;;;;;;;;;;;;;;;;;5079836;28;19943;-89
2022/02/06 07:43:33;;;;;;;;;;;;;;;;;;5079219;28;20334;-89
2022/02/06 07:45:58;;;;;;;;;;;;;;;;;;5079505;28;19999;-90
2022/02/06 07:48:23;;;;;;;;;;;;;;;;;;5079673;28;20015;-90
2022/02/06 07:50:48;;;;;;;;;;;;;;;;;;5072756;28;19913;-89
2022/02/06 07:53:14;;;;;;;;;;;;;;;;;;5079741;28;19923;-90
2022/02/06 07:55:39;;;;;;;;;;;;;;;;;;5079400;28;20442;-89
2022/02/06 07:58:04;;;;;;;;;;;;;;;;;;5079641;28;19916;-90
2022/02/06 08:00:29;;;;;;;;;;;;;;;;;;5079607;28;20367;-90
2022/02/06 08:02:57;;;;;;;;;;;;;;;;;;5079087;28;19923;-89
2022/02/06 08:05:22;;;;;;;;;;;;;;;;;;5079388;28;19919;-90
2022/02/06 08:07:49;;;;;;;;;;;;;;;;;;5079286;28;19912;-90
2022/02/06 08:10:14;;;;;;;;;;;;;;;;;;5078468;28;19923;-91
2022/02/06 08:12:50;;;;;;;;;;;;;;;;;;5079452;28;19908;-90
2022/02/06 08:15:15;;;;;;;;;;;;;;;;;;5079349;28;19920;-89
2022/02/06 08:17:41;;;;;;;;;;;;;;;;;;5079209;28;19920;-89
2022/02/06 08:20:06;;;;;;;;;;;;;;;;;;5078125;28;19915;-89
2022/02/06 08:22:31;;;;;;;;;;;;;;;;;;5079293;28;19912;-90
2022/02/06 08:24:56;;;;;;;;;;;;;;;;;;5078937;28;19908;-89
2022/02/06 08:27:21;;;;;;;;;;;;;;;;;;5078859;28;20003;-89
2022/02/06 08:29:47;;;;;;;;;;;;;;;;;;5078811;28;19908;-89
2022/02/06 08:32:12;;;;;;;;;;;;;;;;;;5078493;28;20000;-89
2022/02/06 08:34:37;;;;;;;;;;;;;;;;;;5078419;28;19916;-88
2022/02/06 08:37:03;;;;;;;;;;;;;;;;;;5078516;28;19908;-89
2022/02/06 08:39:28;;;;;;;;;;;;;;;;;;5078661;28;19973;-89
2022/02/06 08:41:53;;;;;;;;;;;;;;;;;;5077880;28;19919;-88
2022/02/06 08:44:18;;;;;;;;;;;;;;;;;;5096488;28;19916;-89
2022/02/06 08:46:43;;;;;;;;;;;;;;;;;;5078277;28;19912;-88
2022/02/06 08:49:08;;;;;;;;;;;;;;;;;;5078265;28;20441;-88
2022/02/06 08:51:33;;;;;;;;;;;;;;;;;;5078402;28;19962;-88
2022/02/06 08:53:58;;;;;;;;;;;;;;;;;;5077759;28;19919;-89
2022/02/06 08:56:28;;;;;;;;;;;;;;;;;;5096149;28;20419;-88
2022/02/06 08:58:53;;;;;;;;;;;;;;;;;;5078512;28;19965;-89
2022/02/06 09:01:18;;;;;;;;;;;;;;;;;;5078233;28;19919;-91
2022/02/06 09:03:43;;;;;;;;;;;;;;;;;;5077789;28;19968;-91
2022/02/06 09:06:10;;;;;;;;;;;;;;;;;;5096038;28;20429;-90
2022/02/06 09:08:35;;;;;;;;;;;;;;;;;;5078277;28;19912;-90
2022/02/06 09:11:00;;;;;;;;;;;;;;;;;;5077982;28;20360;-88
2022/02/06 09:13:26;;;;;;;;;;;;;;;;;;5077721;28;19999;-90
2022/02/06 09:15:51;;;;;;;;;;;;;;;;;;5077558;28;20397;-90
2022/02/06 09:18:16;;;;;;;;;;;;;;;;;;5078045;28;19908;-90
2022/02/06 09:20:41;;;;;;;;;;;;;;;;;;5077654;28;20364;-90
2022/02/06 09:23:06;;;;;;;;;;;;;;;;;;5077194;28;19916;-90
2022/02/06 09:25:32;;;;;;;;;;;;;;;;;;5077623;28;19912;-89
2022/02/06 09:27:57;;;;;;;;;;;;;;;;;;5077163;28;19964;-90
2022/02/06 09:30:26;;;;;;;;;;;;;;;;;;5077248;28;19961;-89
2022/02/06 09:35:16;;;;;;;;;;;;;;;;;;5095132;28;19920;-90
2022/02/06 09:37:41;;;;;;;;;;;;;;;;;;5077552;28;19920;-90
2022/02/06 09:40:09;;;;;;;;;;;;;;;;;;5077316;28;19959;-90
2022/02/06 09:42:34;;;;;;;;;;;;;;;;;;5077018;28;19967;-90
2022/02/06 09:44:59;;;;;;;;;;;;;;;;;;5077067;28;19937;-90
2022/02/06 09:47:24;;;;;;;;;;;;;;;;;;5095244;28;19965;-90
2022/02/06 09:49:49;;;;;;;;;;;;;;;;;;5077104;28;19944;-90
2022/02/06 09:52:15;;;;;;;;;;;;;;;;;;5076564;28;20375;-89
2022/02/06 09:54:40;;;;;;;;;;;;;;;;;;5076626;28;20390;-90
2022/02/06 09:57:11;;;;;;;;;;;;;;;;;;5077108;28;19923;-90
2022/02/06 09:59:38;;;;;;;;;;;;;;;;;;5077114;28;19912;-89
2022/02/06 10:02:03;;;;;;;;;;;;;;;;;;5076758;28;20394;-90
2022/02/06 10:04:28;;;;;;;;;;;;;;;;;;5076580;28;20356;-89
2022/02/06 10:06:54;;;;;;;;;;;;;;;;;;5076905;28;19913;-89
2022/02/06 10:09:19;;;;;;;;;;;;;;;;;;5076552;28;19919;-89
2022/02/06 10:11:45;;;;;;;;;;;;;;;;;;5076683;28;19912;-90
2022/02/06 10:14:11;;;;;;;;;;;;;;;;;;5076587;28;19959;-90
2022/02/06 10:16:36;;;;;;;;;;;;;;;;;;5094581;28;19912;-89
2022/02/06 10:19:01;;;;;;;;;;;;;;;;;;5076616;28;19912;-90
2022/02/06 10:21:26;;;;;;;;;;;;;;;;;;5076771;28;19912;-89
2022/02/06 10:23:58;;;;;;;;;;;;;;;;;;5076067;28;19916;-89
2022/02/06 10:26:26;;;;;;;;;;;;;;;;;;5076762;28;19912;-89
2022/02/06 10:28:59;;;;;;;;;;;;;;;;;;5076479;28;20355;-89
2022/02/06 10:31:24;;;;;;;;;;;;;;;;;;5076272;28;19913;-89
2022/02/06 10:33:49;;;;;;;;;;;;;;;;;;5076339;28;19964;-89
2022/02/06 10:36:14;;;;;;;;;;;;;;;;;;5076004;28;19912;-89
2022/02/06 10:38:39;;;;;;;;;;;;;;;;;;5075967;28;19943;-89
2022/02/06 10:41:05;;;;;;;;;;;;;;;;;;5076145;28;19953;-89
2022/02/06 10:43:30;;;;;;;;;;;;;;;;;;5076040;28;20411;-88
2022/02/06 10:45:55;;;;;;;;;;;;;;;;;;5075619;28;19933;-89
2022/02/06 10:48:20;;;;;;;;;;;;;;;;;;5075908;28;19918;-89
2022/02/06 10:50:46;;;;;;;;;;;;;;;;;;5075532;28;19914;-89
2022/02/06 10:53:11;;;;;;;;;;;;;;;;;;5075752;28;20474;-89
2022/02/06 10:55:36;;;;;;;;;;;;;;;;;;5075523;28;19912;-89
2022/02/06 10:58:02;;;;;;;;;;;;;;;;;;5093632;28;19927;-89
2022/02/06 11:00:27;;;;;;;;;;;;;;;;;;5076019;28;19912;-89
2022/02/06 11:03:04;;;;;;;;;;;;;;;;;;5074901;28;20002;-89
2022/02/06 11:05:36;;;;;;;;;;;;;;;;;;5075707;28;19916;-89
2022/02/06 11:08:01;;;;;;;;;;;;;;;;;;5075830;28;20353;-89
2022/02/06 11:10:26;;;;;;;;;;;;;;;;;;5075471;28;20260;-89
2022/02/06 11:12:52;;;;;;;;;;;;;;;;;;5075592;28;20374;-89
2022/02/06 11:15:17;;;;;;;;;;;;;;;;;;5075360;28;19919;-89
2022/02/06 11:17:42;;;;;;;;;;;;;;;;;;5075582;28;19908;-89
2022/02/06 11:20:07;;;;;;;;;;;;;;;;;;5075398;28;19919;-87
2022/02/06 11:22:33;;;;;;;;;;;;;;;;;;5075682;28;20279;-89
2022/02/06 11:24:59;;;;;;;;;;;;;;;;;;5093822;28;19958;-88
2022/02/06 11:27:24;;;;;;;;;;;;;;;;;;5075804;28;20363;-89
2022/02/06 11:29:49;;;;;;;;;;;;;;;;;;5075494;28;20440;-88
2022/02/06 11:32:14;;;;;;;;;;;;;;;;;;5076263;28;20090;-90
2022/02/06 11:34:43;;;;;;;;;;;;;;;;;;5078304;28;20382;-88
2022/02/06 11:45:20;;;;;;;;;;;;;;;;;;5093733;28;19919;-88
2022/02/06 11:47:45;;;;;;;;;;;;;;;;;;5093658;28;19912;-91
2022/02/06 11:50:11;;;;;;;;;;;;;;;;;;5075466;28;19912;-87
2022/02/06 11:52:36;;;;;;;;;;;;;;;;;;5075847;28;19912;-89
2022/02/06 11:55:01;;;;;;;;;;;;;;;;;;5077369;28;20347;-88
2022/02/06 11:57:27;;;;;;;;;;;;;;;;;;5076106;28;20003;-88
2022/02/06 11:59:52;;;;;;;;;;;;;;;;;;5075839;28;19908;-88
2022/02/06 12:02:18;;;;;;;;;;;;;;;;;;5075646;28;19916;-87
2022/02/06 12:04:43;;;;;;;;;;;;;;;;;;5093308;28;19908;-86
2022/02/06 12:07:08;;;;;;;;;;;;;;;;;;5072885;28;19912;-87
2022/02/06 12:09:33;;;;;;;;;;;;;;;;;;5086946;28;19912;-86
2022/02/06 12:11:58;;;;;;;;;;;;;;;;;;5075003;28;20241;-86
2022/02/06 12:14:28;;;;;;;;;;;;;;;;;;5076459;28;19912;-88
2022/02/06 12:16:57;;;;;;;;;;;;;;;;;;5078620;28;19908;-87
2022/02/06 12:19:22;;;;;;;;;;;;;;;;;;5075731;28;19912;-86
2022/02/06 12:21:47;;;;;;;;;;;;;;;;;;5078676;28;19919;-86
2022/02/06 12:24:12;;;;;;;;;;;;;;;;;;5078269;28;19986;-86
2022/02/06 12:26:41;;;;;;;;;;;;;;;;;;5077776;28;19920;-86
2022/02/06 12:29:10;;;;;;;;;;;;;;;;;;5077877;28;19912;-85
2022/02/06 12:31:35;;;;;;;;;;;;;;;;;;5078490;28;19929;-86
2022/02/06 12:39:15;;;;;;;;;;;;;;;;;;5096502;28;19923;-86
2022/02/06 12:41:40;;;;;;;;;;;;;;;;;;5078200;28;19994;-86
2022/02/06 12:44:05;;;;;;;;;;;;;;;;;;5096445;28;19964;-86
2022/02/06 12:46:30;;;;;;;;;;;;;;;;;;5078137;28;20346;-85
2022/02/06 12:48:55;;;;;;;;;;;;;;;;;;5096478;28;19916;-85
2022/02/06 12:51:21;;;;;;;;;;;;;;;;;;5077674;28;19916;-87
2022/02/06 12:53:46;;;;;;;;;;;;;;;;;;5078166;28;20348;-87
2022/02/06 12:56:11;;;;;;;;;;;;;;;;;;5077962;28;19965;-86
2022/02/06 12:58:37;;;;;;;;;;;;;;;;;;5095998;28;19912;-85
2022/02/06 13:01:02;;;;;;;;;;;;;;;;;;5077766;28;20011;-85
2022/02/06 13:03:29;;;;;;;;;;;;;;;;;;5077479;28;20022;-85
2022/02/06 13:05:55;;;;;;;;;;;;;;;;;;5077674;28;19916;-85
2022/02/06 13:08:20;;;;;;;;;;;;;;;;;;5095971;28;19912;-85
2022/02/06 13:10:45;;;;;;;;;;;;;;;;;;5076964;28;19912;-85
2022/02/06 13:13:14;;;;;;;;;;;;;;;;;;5077483;28;19912;-85
2022/02/06 13:15:55;;;;;;;;;;;;;;;;;;5076965;28;19912;-85
2022/02/06 13:18:44;;;;;;;;;;;;;;;;;;5077607;28;19965;-85
2022/02/06 13:29:06;;;;;;;;;;;;;;;;;;5095833;28;19919;-86
2022/02/06 13:38:51;;;;;;;;;;;;;;;;;;5095807;28;19921;-86
2022/02/06 13:41:18;;;;;;;;;;;;;;;;;;5077059;28;20053;-86
2022/02/06 13:43:44;;;;;;;;;;;;;;;;;;5095684;28;19922;-88
2022/02/06 13:46:09;;;;;;;;;;;;;;;;;;5078134;28;20003;-88
2022/02/06 13:48:34;;;;;;;;;;;;;;;;;;5076883;28;19919;-86
2022/02/06 13:51:01;;;;;;;;;;;;;;;;;;5076804;28;20359;-85
2022/02/06 13:53:29;;;;;;;;;;;;;;;;;;5076672;28;20421;-86
2022/02/06 13:55:56;;;;;;;;;;;;;;;;;;5076529;28;19920;-88
2022/02/06 13:58:21;;;;;;;;;;;;;;;;;;5074909;28;19919;-86
2022/02/06 14:00:46;;;;;;;;;;;;;;;;;;5076123;28;19912;-87
2022/02/06 14:03:11;;;;;;;;;;;;;;;;;;5076699;28;19938;-87
2022/02/06 14:05:36;;;;;;;;;;;;;;;;;;5076979;28;19912;-86
2022/02/06 14:08:02;;;;;;;;;;;;;;;;;;5094986;28;19919;-87
2022/02/06 14:10:32;;;;;;;;;;;;;;;;;;5076200;28;19918;-86
2022/02/06 14:12:58;;;;;;;;;;;;;;;;;;5094691;28;20355;-87
2022/02/06 14:15:23;;;;;;;;;;;;;;;;;;5076413;28;19957;-87
2022/02/06 14:17:50;;;;;;;;;;;;;;;;;;5076650;28;20364;-87
2022/02/06 14:20:17;;;;;;;;;;;;;;;;;;5077089;28;19912;-87
2022/02/06 14:22:42;;;;;;;;;;;;;;;;;;5074257;28;20299;-87
2022/02/06 14:25:15;;;;;;;;;;;;;;;;;;5070603;28;21081;-87
2022/02/06 14:27:40;;;;;;;;;;;;;;;;;;5072945;28;20036;-87
2022/02/06 14:30:05;;;;;;;;;;;;;;;;;;5093735;28;19956;-87
2022/02/06 14:32:30;;;;;;;;;;;;;;;;;;5075853;28;19916;-88
2022/02/06 14:34:55;;;;;;;;;;;;;;;;;;5093558;28;19916;-89
2022/02/06 14:37:23;;;;;;;;;;;;;;;;;;5076835;28;19912;-89
2022/02/06 14:39:48;;;;;;;;;;;;;;;;;;5076640;28;19912;-89
2022/02/06 14:42:18;;;;;;;;;;;;;;;;;;5076142;28;19981;-88
2022/02/06 14:44:43;;;;;;;;;;;;;;;;;;5076312;28;19908;-89
2022/02/06 14:47:08;;;;;;;;;;;;;;;;;;5075589;28;19919;-89
2022/02/06 14:49:33;;;;;;;;;;;;;;;;;;5076170;28;19919;-89
2022/02/06 14:51:59;;;;;;;;;;;;;;;;;;5075925;28;19927;-88
2022/02/06 14:54:31;;;;;;;;;;;;;;;;;;5076275;28;19916;-87
2022/02/06 14:56:56;;;;;;;;;;;;;;;;;;5076119;28;19908;-86
2022/02/06 14:59:21;;;;;;;;;;;;;;;;;;5075924;28;20283;-87
2022/02/06 15:01:48;;;;;;;;;;;;;;;;;;5075925;28;19938;-87
2022/02/06 15:04:14;;;;;;;;;;;;;;;;;;5075379;28;19912;-87
2022/02/06 15:06:39;;;;;;;;;;;;;;;;;;5075094;28;19961;-87
2022/02/06 15:09:04;;;;;;;;;;;;;;;;;;5094083;28;19916;-87
2022/02/06 15:11:29;;;;;;;;;;;;;;;;;;5094145;28;19919;-87
2022/02/06 15:13:54;;;;;;;;;;;;;;;;;;5076027;28;19912;-87
2022/02/06 15:16:24;;;;;;;;;;;;;;;;;;5075539;28;20371;-87
2022/02/06 15:18:57;;;;;;;;;;;;;;;;;;5076100;28;19998;-87
2022/02/06 15:21:22;;;;;;;;;;;;;;;;;;5075798;28;20248;-87
2022/02/06 15:23:47;;;;;;;;;;;;;;;;;;5075998;28;20420;-87
2022/02/06 15:26:12;;;;;;;;;;;;;;;;;;5075939;28;19966;-87
2022/02/06 15:28:37;;;;;;;;;;;;;;;;;;5076079;28;19912;-87
2022/02/06 15:31:02;;;;;;;;;;;;;;;;;;5075719;28;20367;-87
2022/02/06 15:33:28;;;;;;;;;;;;;;;;;;5075516;28;20381;-87
2022/02/06 15:35:53;;;;;;;;;;;;;;;;;;5094059;28;19908;-87
2022/02/06 15:38:20;;;;;;;;;;;;;;;;;;5075638;28;19919;-87
2022/02/06 15:40:45;;;;;;;;;;;;;;;;;;5076003;28;19920;-87
2022/02/06 15:43:11;;;;;;;;;;;;;;;;;;5075820;28;19920;-87
2022/02/06 15:45:36;;;;;;;;;;;;;;;;;;5075823;28;19957;-87
2022/02/06 15:48:01;;;;;;;;;;;;;;;;;;5075944;28;19915;-87
2022/02/06 15:50:26;;;;;;;;;;;;;;;;;;5078188;28;19913;-87
2022/02/06 15:52:51;;;;;;;;;;;;;;;;;;5079365;28;19914;-87
2022/02/06 15:55:16;;;;;;;;;;;;;;;;;;5079401;28;19914;-87
2022/02/06 15:57:41;;;;;;;;;;;;;;;;;;5079598;28;19919;-87
2022/02/06 16:00:06;;;;;;;;;;;;;;;;;;5079663;28;19916;-87
2022/02/06 16:02:31;;;;;;;;;;;;;;;;;;5079502;28;19912;-87
2022/02/06 16:04:57;;;;;;;;;;;;;;;;;;5079270;28;19912;-87
2022/02/06 16:07:22;;;;;;;;;;;;;;;;;;5079013;28;19919;-87
2022/02/06 16:09:47;;;;;;;;;;;;;;;;;;5079142;28;19919;-87
2022/02/06 16:12:12;;;;;;;;;;;;;;;;;;5079093;28;19935;-87
2022/02/06 16:14:39;;;;;;;;;;;;;;;;;;5079016;28;20379;-87
2022/02/06 16:17:04;;;;;;;;;;;;;;;;;;5078509;28;19968;-87
2022/02/06 16:19:29;;;;;;;;;;;;;;;;;;5078604;28;19912;-87
2022/02/06 16:21:54;;;;;;;;;;;;;;;;;;5082443;28;20275;-90
2022/02/06 16:24:20;;;;;;;;;;;;;;;;;;5096651;28;19912;-88
2022/02/06 16:26:45;;;;;;;;;;;;;;;;;;5078756;28;20024;-88
2022/02/06 16:29:10;;;;;;;;;;;;;;;;;;5079132;28;20371;-89
2022/02/06 16:31:35;;;;;;;;;;;;;;;;;;5078177;28;19916;-89
2022/02/06 16:34:00;;;;;;;;;;;;;;;;;;5078802;28;19916;-89
2022/02/06 16:36:25;;;;;;;;;;;;;;;;;;5079031;28;19947;-89
2022/02/06 16:38:50;;;;;;;;;;;;;;;;;;5078832;28;19915;-90
2022/02/06 16:41:15;;;;;;;;;;;;;;;;;;5096965;28;20014;-86
2022/02/06 16:43:40;;;;;;;;;;;;;;;;;;5077796;28;20298;-86
2022/02/06 16:46:06;;;;;;;;;;;;;;;;;;5077960;28;19968;-87
2022/02/06 16:48:31;;;;;;;;;;;;;;;;;;5078104;28;19948;-87
2022/02/06 16:50:56;;;;;;;;;;;;;;;;;;5078231;28;19908;-86
2022/02/06 16:53:21;;;;;;;;;;;;;;;;;;5078187;28;19994;-87
2022/02/06 16:55:49;;;;;;;;;;;;;;;;;;5077664;28;20020;-88
2022/02/06 16:58:15;;;;;;;;;;;;;;;;;;5077982;28;19923;-89
2022/02/06 17:00:40;;;;;;;;;;;;;;;;;;5063604;28;19912;-90
2022/02/06 17:03:05;;;;;;;;;;;;;;;;;;5077694;28;19924;-87
2022/02/06 17:05:30;;;;;;;;;;;;;;;;;;5077810;28;19912;-87
2022/02/06 17:07:56;;;;;;;;;;;;;;;;;;5077713;28;19916;-87
2022/02/06 17:10:22;;;;;;;;;;;;;;;;;;5077600;28;19956;-89
2022/02/06 17:12:47;;;;;;;;;;;;;;;;;;5077781;28;20366;-88
2022/02/06 17:15:12;;;;;;;;;;;;;;;;;;5077155;28;19916;-89
2022/02/06 17:17:37;;;;;;;;;;;;;;;;;;5077613;28;19912;-88
2022/02/06 17:20:02;;;;;;;;;;;;;;;;;;5076462;28;19935;-87
2022/02/06 17:22:27;;;;;;;;;;;;;;;;;;5076589;28;20436;-88
2022/02/06 17:24:53;;;;;;;;;;;;;;;;;;5076917;28;19912;-87
2022/02/06 17:27:21;;;;;;;;;;;;;;;;;;5095257;28;19912;-88
2022/02/06 17:29:46;;;;;;;;;;;;;;;;;;5076806;28;19912;-87
2022/02/06 17:32:11;;;;;;;;;;;;;;;;;;5076910;28;19912;-88
2022/02/06 17:34:37;;;;;;;;;;;;;;;;;;5076517;28;20286;-87
2022/02/06 17:37:02;;;;;;;;;;;;;;;;;;5076968;28;19912;-87
2022/02/06 17:39:27;;;;;;;;;;;;;;;;;;5076967;28;19912;-88
2022/02/06 17:41:52;;;;;;;;;;;;;;;;;;5094604;28;20271;-87
2022/02/06 17:44:17;;;;;;;;;;;;;;;;;;5076472;28;19957;-87
2022/02/06 17:46:43;;;;;;;;;;;;;;;;;;5076524;28;19957;-87
2022/02/06 17:49:08;;;;;;;;;;;;;;;;;;5076065;28;20473;-87
2022/02/06 17:51:33;;;;;;;;;;;;;;;;;;5073561;28;19916;-87
2022/02/06 17:53:58;;;;;;;;;;;;;;;;;;5075850;28;19908;-86
2022/02/06 17:56:23;;;;;;;;;;;;;;;;;;5075577;28;19916;-88
2022/02/06 17:58:48;;;;;;;;;;;;;;;;;;5075508;28;19943;-88
2022/02/06 18:01:13;;;;;;;;;;;;;;;;;;5075896;28;19991;-87
2022/02/06 18:03:38;;;;;;;;;;;;;;;;;;5075974;28;19923;-87
2022/02/06 18:06:04;;;;;;;;;;;;;;;;;;5074601;28;19999;-86
2022/02/06 18:08:31;;;;;;;;;;;;;;;;;;5067251;28;19952;-88
2022/02/06 18:10:56;;;;;;;;;;;;;;;;;;5070507;28;20311;-88
2022/02/06 18:13:22;;;;;;;;;;;;;;;;;;5075317;28;19923;-88
2022/02/06 18:15:47;;;;;;;;;;;;;;;;;;5076178;28;19932;-90
2022/02/06 18:18:12;;;;;;;;;;;;;;;;;;5076186;28;20635;-90
2022/02/06 18:20:38;;;;;;;;;;;;;;;;;;5075464;28;20326;-87
2022/02/06 18:23:03;;;;;;;;;;;;;;;;;;5084408;28;20007;-87
2022/02/06 18:25:28;;;;;;;;;;;;;;;;;;5076149;28;20321;-88
2022/02/06 18:27:53;;;;;;;;;;;;;;;;;;5075842;28;19908;-89
2022/02/06 18:30:18;;;;;;;;;;;;;;;;;;5076139;28;19912;-87
2022/02/06 18:32:44;;;;;;;;;;;;;;;;;;5093780;28;20382;-87
2022/02/06 18:35:09;;;;;;;;;;;;;;;;;;5075844;28;19924;-86
2022/02/06 18:37:34;;;;;;;;;;;;;;;;;;5075645;28;19916;-87
2022/02/06 18:39:59;;;;;;;;;;;;;;;;;;5093672;28;19919;-87
2022/02/06 18:42:25;;;;;;;;;;;;;;;;;;5069199;28;19927;-88
2022/02/06 18:44:50;;;;;;;;;;;;;;;;;;5075713;28;19916;-87
2022/02/06 18:47:15;;;;;;;;;;;;;;;;;;5073008;28;19912;-88
2022/02/06 18:49:40;;;;;;;;;;;;;;;;;;5075436;28;19935;-88
2022/02/06 18:52:07;;;;;;;;;;;;;;;;;;5087840;28;19934;-88
2022/02/06 18:54:32;;;;;;;;;;;;;;;;;;5075407;28;19974;-87
2022/02/06 18:57:00;;;;;;;;;;;;;;;;;;5072120;28;19912;-88
2022/02/06 18:59:29;;;;;;;;;;;;;;;;;;5084231;28;19908;-88
2022/02/06 19:01:54;;;;;;;;;;;;;;;;;;5063950;28;19940;-88
2022/02/06 19:04:20;;;;;;;;;;;;;;;;;;5089693;28;19909;-87
2022/02/06 19:06:46;;;;;;;;;;;;;;;;;;5075577;28;19994;-87
2022/02/06 19:09:14;;;;;;;;;;;;;;;;;;5090601;28;19955;-87
2022/02/06 19:11:39;;;;;;;;;;;;;;;;;;5091683;28;19916;-86
2022/02/06 19:14:04;;;;;;;;;;;;;;;;;;5072222;28;20003;-86
2022/02/06 19:16:29;;;;;;;;;;;;;;;;;;5078461;28;20268;-87
2022/02/06 19:18:54;;;;;;;;;;;;;;;;;;5075056;28;20355;-87
2022/02/06 19:21:20;;;;;;;;;;;;;;;;;;5075175;28;19912;-88